Mammoth Cave National Park, Kentucky
Current Conditions -  °F | °C
As of 6:35 AM on Monday 24 Nov 2014 (Local Time) from KGLW Reporting Station
Broken Clouds Broken Clouds  
Wind Chill: 61°   Ceiling: 4500
Heat Index: 61°   Visibility: 10mi
Dew Point: 50°   Wind: 21mph
Humidity: 68%   Direction: 220°SW
Pressure: 29.48"   Gusts: 36mph
Location:  37.2519°N, 86.1739°W
Report Text: KGLW 241235Z AUTO 22018G31KT 10SM SCT036 BKN045 BKN060 16/10 A2948 RMK AO2 T01600101
Loading
Personal Weather Stations






























Interactive Weather Map New forecast layout! Learn more

10-Day Weather Forecast

Advertisements
Track Severe Weather on mobile